sensor_id;sensor_type;location;lat;lon;timestamp;P1;durP1;ratioP1;P2;durP2;ratioP2
65234;SDS011;51820;48.374;10.930;2022-10-28T00:01:57;8.35;;;3.47;;
65234;SDS011;51820;48.374;10.930;2022-10-28T00:04:27;11.05;;;3.53;;
65234;SDS011;51820;48.374;10.930;2022-10-28T00:07:01;8.67;;;3.80;;
65234;SDS011;51820;48.374;10.930;2022-10-28T00:09:30;9.65;;;3.70;;
65234;SDS011;51820;48.374;10.930;2022-10-28T00:11:58;9.88;;;3.20;;
65234;SDS011;51820;48.374;10.930;2022-10-28T00:14:27;9.45;;;3.40;;
65234;SDS011;51820;48.374;10.930;2022-10-28T00:16:55;13.85;;;3.40;;
65234;SDS011;51820;48.374;10.930;2022-10-28T00:19:23;11.13;;;3.63;;
65234;SDS011;51820;48.374;10.930;2022-10-28T00:21:53;11.50;;;3.60;;
65234;SDS011;51820;48.374;10.930;2022-10-28T00:24:21;9.15;;;3.50;;
65234;SDS011;51820;48.374;10.930;2022-10-28T00:26:49;9.35;;;3.15;;
65234;SDS011;51820;48.374;10.930;2022-10-28T00:29:18;11.30;;;3.50;;
65234;SDS011;51820;48.374;10.930;2022-10-28T00:31:46;11.47;;;3.33;;
65234;SDS011;51820;48.374;10.930;2022-10-28T00:34:16;17.60;;;3.78;;
65234;SDS011;51820;48.374;10.930;2022-10-28T00:36:46;10.50;;;3.38;;
65234;SDS011;51820;48.374;10.930;2022-10-28T00:39:17;10.13;;;3.28;;
65234;SDS011;51820;48.374;10.930;2022-10-28T00:41:47;11.15;;;3.10;;
65234;SDS011;51820;48.374;10.930;2022-10-28T00:47:16;8.05;;;3.25;;
65234;SDS011;51820;48.374;10.930;2022-10-28T00:49:49;7.78;;;3.17;;
65234;SDS011;51820;48.374;10.930;2022-10-28T00:52:21;8.32;;;3.33;;
65234;SDS011;51820;48.374;10.930;2022-10-28T00:54:54;13.60;;;3.60;;
65234;SDS011;51820;48.374;10.930;2022-10-28T00:57:24;8.37;;;2.90;;
65234;SDS011;51820;48.374;10.930;2022-10-28T00:59:57;9.77;;;2.88;;
65234;SDS011;51820;48.374;10.930;2022-10-28T01:02:28;7.95;;;2.88;;
65234;SDS011;51820;48.374;10.930;2022-10-28T01:04:56;7.72;;;2.83;;
65234;SDS011;51820;48.374;10.930;2022-10-28T01:07:25;10.88;;;2.88;;
65234;SDS011;51820;48.374;10.930;2022-10-28T01:09:55;12.33;;;3.50;;
65234;SDS011;51820;48.374;10.930;2022-10-28T01:12:25;8.07;;;2.92;;
65234;SDS011;51820;48.374;10.930;2022-10-28T01:15:01;12.02;;;2.83;;
65234;SDS011;51820;48.374;10.930;2022-10-28T01:17:39;10.23;;;2.95;;
65234;SDS011;51820;48.374;10.930;2022-10-28T01:20:33;7.57;;;2.88;;
65234;SDS011;51820;48.374;10.930;2022-10-28T01:23:28;7.77;;;2.63;;
65234;SDS011;51820;48.374;10.930;2022-10-28T01:26:11;7.55;;;2.90;;
65234;SDS011;51820;48.374;10.930;2022-10-28T01:29:01;9.98;;;2.72;;
65234;SDS011;51820;48.374;10.930;2022-10-28T01:31:58;8.73;;;2.72;;
65234;SDS011;51820;48.374;10.930;2022-10-28T01:34:32;11.73;;;3.03;;
65234;SDS011;51820;48.374;10.930;2022-10-28T01:37:07;9.37;;;2.80;;
65234;SDS011;51820;48.374;10.930;2022-10-28T01:39:42;8.80;;;2.58;;
65234;SDS011;51820;48.374;10.930;2022-10-28T01:42:14;8.57;;;2.65;;
65234;SDS011;51820;48.374;10.930;2022-10-28T01:44:55;10.88;;;2.50;;
65234;SDS011;51820;48.374;10.930;2022-10-28T01:47:30;8.27;;;2.90;;
65234;SDS011;51820;48.374;10.930;2022-10-28T01:50:04;15.63;;;3.07;;
65234;SDS011;51820;48.374;10.930;2022-10-28T01:52:35;6.97;;;2.78;;
65234;SDS011;51820;48.374;10.930;2022-10-28T01:55:08;9.93;;;2.45;;
65234;SDS011;51820;48.374;10.930;2022-10-28T01:57:40;10.77;;;2.67;;
65234;SDS011;51820;48.374;10.930;2022-10-28T02:00:10;8.70;;;2.60;;
65234;SDS011;51820;48.374;10.930;2022-10-28T02:02:40;9.63;;;2.50;;
65234;SDS011;51820;48.374;10.930;2022-10-28T02:08:11;8.27;;;2.42;;
65234;SDS011;51820;48.374;10.930;2022-10-28T02:10:58;7.53;;;2.80;;
65234;SDS011;51820;48.374;10.930;2022-10-28T02:13:38;7.57;;;2.80;;
65234;SDS011;51820;48.374;10.930;2022-10-28T02:16:15;8.10;;;2.40;;
65234;SDS011;51820;48.374;10.930;2022-10-28T02:18:52;10.25;;;2.45;;
65234;SDS011;51820;48.374;10.930;2022-10-28T02:21:32;7.28;;;2.42;;
65234;SDS011;51820;48.374;10.930;2022-10-28T02:24:07;8.40;;;2.65;;
65234;SDS011;51820;48.374;10.930;2022-10-28T02:26:44;11.55;;;2.50;;
65234;SDS011;51820;48.374;10.930;2022-10-28T02:29:19;10.53;;;3.13;;
65234;SDS011;51820;48.374;10.930;2022-10-28T02:31:54;11.93;;;2.55;;
65234;SDS011;51820;48.374;10.930;2022-10-28T02:34:27;10.40;;;3.05;;
65234;SDS011;51820;48.374;10.930;2022-10-28T02:36:58;9.82;;;2.55;;
65234;SDS011;51820;48.374;10.930;2022-10-28T02:39:30;8.80;;;2.60;;
65234;SDS011;51820;48.374;10.930;2022-10-28T02:42:06;8.30;;;2.40;;
65234;SDS011;51820;48.374;10.930;2022-10-28T02:44:40;8.07;;;2.42;;
65234;SDS011;51820;48.374;10.930;2022-10-28T02:47:15;8.77;;;2.88;;
65234;SDS011;51820;48.374;10.930;2022-10-28T02:49:49;9.10;;;2.65;;
65234;SDS011;51820;48.374;10.930;2022-10-28T02:52:19;11.07;;;3.00;;
65234;SDS011;51820;48.374;10.930;2022-10-28T02:54:52;8.80;;;2.30;;
65234;SDS011;51820;48.374;10.930;2022-10-28T02:57:22;7.53;;;2.85;;
65234;SDS011;51820;48.374;10.930;2022-10-28T02:59:52;9.18;;;3.28;;
65234;SDS011;51820;48.374;10.930;2022-10-28T03:02:21;8.15;;;2.50;;
65234;SDS011;51820;48.374;10.930;2022-10-28T03:04:52;9.30;;;2.75;;
65234;SDS011;51820;48.374;10.930;2022-10-28T03:07:20;10.47;;;2.70;;
65234;SDS011;51820;48.374;10.930;2022-10-28T03:09:48;8.88;;;2.80;;
65234;SDS011;51820;48.374;10.930;2022-10-28T03:12:17;6.55;;;2.60;;
65234;SDS011;51820;48.374;10.930;2022-10-28T03:14:45;8.43;;;2.28;;
65234;SDS011;51820;48.374;10.930;2022-10-28T03:17:14;7.18;;;2.40;;
65234;SDS011;51820;48.374;10.930;2022-10-28T03:19:42;9.13;;;2.73;;
65234;SDS011;51820;48.374;10.930;2022-10-28T03:22:12;7.72;;;2.80;;
65234;SDS011;51820;48.374;10.930;2022-10-28T03:24:40;8.10;;;2.47;;
65234;SDS011;51820;48.374;10.930;2022-10-28T03:27:08;7.70;;;3.00;;
65234;SDS011;51820;48.374;10.930;2022-10-28T03:29:37;7.88;;;2.65;;
65234;SDS011;51820;48.374;10.930;2022-10-28T03:32:11;9.97;;;2.60;;
65234;SDS011;51820;48.374;10.930;2022-10-28T03:34:39;8.43;;;3.33;;
65234;SDS011;51820;48.374;10.930;2022-10-28T03:37:08;10.57;;;2.85;;
65234;SDS011;51820;48.374;10.930;2022-10-28T03:39:38;11.10;;;2.95;;
65234;SDS011;51820;48.374;10.930;2022-10-28T03:42:06;11.40;;;3.15;;
65234;SDS011;51820;48.374;10.930;2022-10-28T03:44:34;9.97;;;3.00;;
65234;SDS011;51820;48.374;10.930;2022-10-28T03:47:02;9.00;;;2.50;;
65234;SDS011;51820;48.374;10.930;2022-10-28T03:49:31;9.10;;;2.70;;
65234;SDS011;51820;48.374;10.930;2022-10-28T03:51:59;11.30;;;3.40;;
65234;SDS011;51820;48.374;10.930;2022-10-28T03:54:28;9.23;;;2.78;;
65234;SDS011;51820;48.374;10.930;2022-10-28T03:56:58;8.37;;;2.73;;
65234;SDS011;51820;48.374;10.930;2022-10-28T03:59:26;9.93;;;3.08;;
65234;SDS011;51820;48.374;10.930;2022-10-28T04:01:54;10.60;;;3.25;;
65234;SDS011;51820;48.374;10.930;2022-10-28T04:04:23;10.55;;;3.10;;
65234;SDS011;51820;48.374;10.930;2022-10-28T04:06:56;10.02;;;3.03;;
65234;SDS011;51820;48.374;10.930;2022-10-28T04:09:24;9.10;;;3.20;;
65234;SDS011;51820;48.374;10.930;2022-10-28T04:11:52;10.63;;;3.17;;
65234;SDS011;51820;48.374;10.930;2022-10-28T04:14:22;7.35;;;3.03;;
65234;SDS011;51820;48.374;10.930;2022-10-28T04:16:50;12.02;;;3.30;;
65234;SDS011;51820;48.374;10.930;2022-10-28T04:19:19;9.38;;;3.08;;
65234;SDS011;51820;48.374;10.930;2022-10-28T04:21:47;11.07;;;2.77;;
65234;SDS011;51820;48.374;10.930;2022-10-28T04:24:15;14.57;;;3.17;;
65234;SDS011;51820;48.374;10.930;2022-10-28T04:26:43;8.13;;;3.42;;
65234;SDS011;51820;48.374;10.930;2022-10-28T04:29:12;10.63;;;3.22;;
65234;SDS011;51820;48.374;10.930;2022-10-28T04:31:42;11.90;;;3.35;;
65234;SDS011;51820;48.374;10.930;2022-10-28T04:34:16;10.53;;;3.70;;
65234;SDS011;51820;48.374;10.930;2022-10-28T04:36:45;9.55;;;3.13;;
65234;SDS011;51820;48.374;10.930;2022-10-28T04:39:16;9.25;;;3.65;;
65234;SDS011;51820;48.374;10.930;2022-10-28T04:41:48;9.63;;;3.35;;
65234;SDS011;51820;48.374;10.930;2022-10-28T04:44:17;10.77;;;3.33;;
65234;SDS011;51820;48.374;10.930;2022-10-28T04:46:47;8.17;;;2.97;;
65234;SDS011;51820;48.374;10.930;2022-10-28T04:49:16;10.85;;;3.30;;
65234;SDS011;51820;48.374;10.930;2022-10-28T04:51:45;9.88;;;2.97;;
65234;SDS011;51820;48.374;10.930;2022-10-28T04:54:20;10.77;;;3.47;;
65234;SDS011;51820;48.374;10.930;2022-10-28T04:56:50;12.70;;;2.80;;
65234;SDS011;51820;48.374;10.930;2022-10-28T04:59:21;6.83;;;2.80;;
65234;SDS011;51820;48.374;10.930;2022-10-28T05:01:51;6.95;;;2.58;;
65234;SDS011;51820;48.374;10.930;2022-10-28T05:04:20;10.00;;;2.55;;
65234;SDS011;51820;48.374;10.930;2022-10-28T05:06:52;8.68;;;2.65;;
65234;SDS011;51820;48.374;10.930;2022-10-28T05:09:20;10.65;;;2.80;;
65234;SDS011;51820;48.374;10.930;2022-10-28T05:11:49;8.87;;;2.80;;
65234;SDS011;51820;48.374;10.930;2022-10-28T05:14:20;8.75;;;2.90;;
65234;SDS011;51820;48.374;10.930;2022-10-28T05:16:49;9.90;;;2.70;;
65234;SDS011;51820;48.374;10.930;2022-10-28T05:19:24;8.35;;;3.00;;
65234;SDS011;51820;48.374;10.930;2022-10-28T05:21:52;10.77;;;2.88;;
65234;SDS011;51820;48.374;10.930;2022-10-28T05:24:21;11.67;;;2.90;;
65234;SDS011;51820;48.374;10.930;2022-10-28T05:26:50;11.35;;;3.00;;
65234;SDS011;51820;48.374;10.930;2022-10-28T05:29:21;11.95;;;3.03;;
65234;SDS011;51820;48.374;10.930;2022-10-28T05:31:49;8.82;;;2.92;;
65234;SDS011;51820;48.374;10.930;2022-10-28T05:34:19;10.73;;;2.80;;
65234;SDS011;51820;48.374;10.930;2022-10-28T05:36:47;14.30;;;2.67;;
65234;SDS011;51820;48.374;10.930;2022-10-28T05:39:16;8.40;;;2.75;;
65234;SDS011;51820;48.374;10.930;2022-10-28T05:41:45;11.38;;;2.90;;
65234;SDS011;51820;48.374;10.930;2022-10-28T05:44:13;10.80;;;2.92;;
65234;SDS011;51820;48.374;10.930;2022-10-28T05:46:41;10.05;;;2.80;;
65234;SDS011;51820;48.374;10.930;2022-10-28T05:49:10;8.83;;;3.03;;
65234;SDS011;51820;48.374;10.930;2022-10-28T05:51:39;10.25;;;3.38;;
65234;SDS011;51820;48.374;10.930;2022-10-28T05:54:07;13.68;;;2.45;;
65234;SDS011;51820;48.374;10.930;2022-10-28T05:56:36;11.98;;;3.10;;
65234;SDS011;51820;48.374;10.930;2022-10-28T05:59:04;11.35;;;3.17;;
65234;SDS011;51820;48.374;10.930;2022-10-28T06:01:32;12.13;;;3.27;;
65234;SDS011;51820;48.374;10.930;2022-10-28T06:04:01;8.55;;;2.90;;
65234;SDS011;51820;48.374;10.930;2022-10-28T06:06:30;9.82;;;2.90;;
65234;SDS011;51820;48.374;10.930;2022-10-28T06:08:59;8.98;;;3.25;;
65234;SDS011;51820;48.374;10.930;2022-10-28T06:11:28;10.60;;;3.03;;
65234;SDS011;51820;48.374;10.930;2022-10-28T06:13:56;9.63;;;2.93;;
65234;SDS011;51820;48.374;10.930;2022-10-28T06:16:24;9.65;;;3.00;;
65234;SDS011;51820;48.374;10.930;2022-10-28T06:18:53;8.65;;;2.80;;
65234;SDS011;51820;48.374;10.930;2022-10-28T06:21:21;9.32;;;3.17;;
65234;SDS011;51820;48.374;10.930;2022-10-28T06:23:49;8.95;;;3.22;;
65234;SDS011;51820;48.374;10.930;2022-10-28T06:26:19;11.60;;;2.60;;
65234;SDS011;51820;48.374;10.930;2022-10-28T06:28:47;9.77;;;2.88;;
65234;SDS011;51820;48.374;10.930;2022-10-28T06:31:16;8.55;;;2.75;;
65234;SDS011;51820;48.374;10.930;2022-10-28T06:33:44;8.43;;;2.55;;
65234;SDS011;51820;48.374;10.930;2022-10-28T06:36:13;12.98;;;2.72;;
65234;SDS011;51820;48.374;10.930;2022-10-28T06:38:41;9.03;;;3.10;;
65234;SDS011;51820;48.374;10.930;2022-10-28T06:41:10;8.20;;;2.80;;
65234;SDS011;51820;48.374;10.930;2022-10-28T06:43:40;7.82;;;2.58;;
65234;SDS011;51820;48.374;10.930;2022-10-28T06:46:08;8.60;;;2.53;;
65234;SDS011;51820;48.374;10.930;2022-10-28T06:48:36;9.02;;;2.83;;
65234;SDS011;51820;48.374;10.930;2022-10-28T06:51:05;9.70;;;3.50;;
65234;SDS011;51820;48.374;10.930;2022-10-28T06:53:34;7.57;;;2.58;;
65234;SDS011;51820;48.374;10.930;2022-10-28T06:56:03;15.40;;;3.33;;
65234;SDS011;51820;48.374;10.930;2022-10-28T06:58:32;8.05;;;2.92;;
65234;SDS011;51820;48.374;10.930;2022-10-28T07:01:03;10.52;;;2.85;;
65234;SDS011;51820;48.374;10.930;2022-10-28T07:03:32;11.57;;;3.03;;
65234;SDS011;51820;48.374;10.930;2022-10-28T07:06:00;6.47;;;2.47;;
65234;SDS011;51820;48.374;10.930;2022-10-28T07:08:30;11.65;;;3.17;;
65234;SDS011;51820;48.374;10.930;2022-10-28T07:11:02;13.75;;;4.25;;
65234;SDS011;51820;48.374;10.930;2022-10-28T07:13:32;18.58;;;6.60;;
65234;SDS011;51820;48.374;10.930;2022-10-28T07:16:00;17.60;;;6.83;;
65234;SDS011;51820;48.374;10.930;2022-10-28T07:18:32;18.70;;;6.70;;
65234;SDS011;51820;48.374;10.930;2022-10-28T07:21:00;15.80;;;7.65;;
65234;SDS011;51820;48.374;10.930;2022-10-28T07:23:31;18.90;;;6.38;;
65234;SDS011;51820;48.374;10.930;2022-10-28T07:26:00;14.43;;;5.90;;
65234;SDS011;51820;48.374;10.930;2022-10-28T07:28:30;18.63;;;6.27;;
65234;SDS011;51820;48.374;10.930;2022-10-28T07:30:59;12.45;;;5.22;;
65234;SDS011;51820;48.374;10.930;2022-10-28T07:33:28;14.88;;;3.80;;
65234;SDS011;51820;48.374;10.930;2022-10-28T07:35:58;9.93;;;3.40;;
65234;SDS011;51820;48.374;10.930;2022-10-28T07:38:29;13.10;;;3.22;;
65234;SDS011;51820;48.374;10.930;2022-10-28T07:41:01;12.00;;;3.40;;
65234;SDS011;51820;48.374;10.930;2022-10-28T07:43:30;15.75;;;4.03;;
65234;SDS011;51820;48.374;10.930;2022-10-28T07:46:05;12.27;;;2.72;;
65234;SDS011;51820;48.374;10.930;2022-10-28T07:48:37;12.18;;;2.45;;
65234;SDS011;51820;48.374;10.930;2022-10-28T07:51:09;15.50;;;2.63;;
65234;SDS011;51820;48.374;10.930;2022-10-28T07:53:40;7.93;;;2.23;;
65234;SDS011;51820;48.374;10.930;2022-10-28T07:56:09;10.73;;;2.45;;
65234;SDS011;51820;48.374;10.930;2022-10-28T07:58:42;8.07;;;2.10;;
65234;SDS011;51820;48.374;10.930;2022-10-28T08:01:12;9.85;;;2.10;;
65234;SDS011;51820;48.374;10.930;2022-10-28T08:03:43;8.40;;;1.83;;
65234;SDS011;51820;48.374;10.930;2022-10-28T08:06:17;6.70;;;2.30;;
65234;SDS011;51820;48.374;10.930;2022-10-28T08:08:52;9.55;;;2.20;;
65234;SDS011;51820;48.374;10.930;2022-10-28T08:11:21;10.00;;;2.42;;
65234;SDS011;51820;48.374;10.930;2022-10-28T08:13:55;9.50;;;2.33;;
65234;SDS011;51820;48.374;10.930;2022-10-28T08:16:23;11.63;;;2.40;;
65234;SDS011;51820;48.374;10.930;2022-10-28T08:18:54;5.33;;;1.77;;
65234;SDS011;51820;48.374;10.930;2022-10-28T08:21:24;9.65;;;2.63;;
65234;SDS011;51820;48.374;10.930;2022-10-28T08:23:52;8.90;;;1.98;;
65234;SDS011;51820;48.374;10.930;2022-10-28T08:26:21;8.15;;;2.70;;
65234;SDS011;51820;48.374;10.930;2022-10-28T08:28:50;13.80;;;2.35;;
65234;SDS011;51820;48.374;10.930;2022-10-28T08:31:18;7.17;;;2.33;;
65234;SDS011;51820;48.374;10.930;2022-10-28T08:33:47;5.97;;;2.50;;
65234;SDS011;51820;48.374;10.930;2022-10-28T08:36:17;10.60;;;3.30;;
65234;SDS011;51820;48.374;10.930;2022-10-28T08:38:47;13.35;;;2.83;;
65234;SDS011;51820;48.374;10.930;2022-10-28T08:41:18;10.52;;;2.50;;
65234;SDS011;51820;48.374;10.930;2022-10-28T08:43:59;10.50;;;2.77;;
65234;SDS011;51820;48.374;10.930;2022-10-28T08:46:50;13.20;;;2.58;;
65234;SDS011;51820;48.374;10.930;2022-10-28T08:49:26;11.52;;;2.50;;
65234;SDS011;51820;48.374;10.930;2022-10-28T08:51:59;11.50;;;2.38;;
65234;SDS011;51820;48.374;10.930;2022-10-28T08:54:39;9.20;;;2.65;;
65234;SDS011;51820;48.374;10.930;2022-10-28T08:57:14;18.23;;;2.60;;
65234;SDS011;51820;48.374;10.930;2022-10-28T08:59:45;11.07;;;2.67;;
65234;SDS011;51820;48.374;10.930;2022-10-28T09:02:18;9.70;;;2.83;;
65234;SDS011;51820;48.374;10.930;2022-10-28T09:04:50;11.55;;;3.75;;
65234;SDS011;51820;48.374;10.930;2022-10-28T09:07:23;11.90;;;3.38;;
65234;SDS011;51820;48.374;10.930;2022-10-28T09:09:57;9.37;;;2.70;;
65234;SDS011;51820;48.374;10.930;2022-10-28T09:12:30;10.98;;;2.72;;
65234;SDS011;51820;48.374;10.930;2022-10-28T09:15:14;9.90;;;2.90;;
65234;SDS011;51820;48.374;10.930;2022-10-28T09:17:53;12.65;;;3.03;;
65234;SDS011;51820;48.374;10.930;2022-10-28T09:20:28;8.18;;;2.60;;
65234;SDS011;51820;48.374;10.930;2022-10-28T09:23:06;10.63;;;2.87;;
65234;SDS011;51820;48.374;10.930;2022-10-28T09:25:44;17.40;;;3.20;;
65234;SDS011;51820;48.374;10.930;2022-10-28T09:28:25;7.63;;;1.88;;
65234;SDS011;51820;48.374;10.930;2022-10-28T09:31:07;9.52;;;2.17;;
65234;SDS011;51820;48.374;10.930;2022-10-28T09:33:50;10.00;;;2.15;;
65234;SDS011;51820;48.374;10.930;2022-10-28T09:36:37;7.67;;;1.93;;
65234;SDS011;51820;48.374;10.930;2022-10-28T09:39:55;6.85;;;2.05;;
65234;SDS011;51820;48.374;10.930;2022-10-28T09:42:43;10.07;;;2.30;;
65234;SDS011;51820;48.374;10.930;2022-10-28T09:45:18;8.32;;;1.95;;
65234;SDS011;51820;48.374;10.930;2022-10-28T09:47:52;7.60;;;2.05;;
65234;SDS011;51820;48.374;10.930;2022-10-28T09:50:26;10.97;;;1.97;;
65234;SDS011;51820;48.374;10.930;2022-10-28T09:52:58;6.60;;;2.08;;
65234;SDS011;51820;48.374;10.930;2022-10-28T09:55:31;8.20;;;2.15;;
65234;SDS011;51820;48.374;10.930;2022-10-28T09:58:02;7.75;;;2.03;;
65234;SDS011;51820;48.374;10.930;2022-10-28T10:00:31;10.50;;;2.25;;
65234;SDS011;51820;48.374;10.930;2022-10-28T10:03:00;13.17;;;2.13;;
65234;SDS011;51820;48.374;10.930;2022-10-28T10:05:28;11.07;;;2.30;;
65234;SDS011;51820;48.374;10.930;2022-10-28T10:08:00;8.10;;;1.75;;
65234;SDS011;51820;48.374;10.930;2022-10-28T10:10:31;7.80;;;1.88;;
65234;SDS011;51820;48.374;10.930;2022-10-28T10:13:05;7.55;;;1.80;;
65234;SDS011;51820;48.374;10.930;2022-10-28T10:15:35;5.73;;;1.93;;
65234;SDS011;51820;48.374;10.930;2022-10-28T10:18:06;10.25;;;2.20;;
65234;SDS011;51820;48.374;10.930;2022-10-28T10:20:48;9.23;;;2.22;;
65234;SDS011;51820;48.374;10.930;2022-10-28T10:23:21;9.07;;;2.10;;
65234;SDS011;51820;48.374;10.930;2022-10-28T10:25:54;7.93;;;2.05;;
65234;SDS011;51820;48.374;10.930;2022-10-28T10:28:37;6.80;;;1.93;;
65234;SDS011;51820;48.374;10.930;2022-10-28T10:31:08;10.75;;;2.58;;
65234;SDS011;51820;48.374;10.930;2022-10-28T10:33:47;8.30;;;2.10;;
65234;SDS011;51820;48.374;10.930;2022-10-28T10:36:16;9.18;;;2.00;;
65234;SDS011;51820;48.374;10.930;2022-10-28T10:38:49;9.02;;;1.80;;
65234;SDS011;51820;48.374;10.930;2022-10-28T10:41:31;16.40;;;2.37;;
65234;SDS011;51820;48.374;10.930;2022-10-28T10:44:02;8.38;;;1.77;;
65234;SDS011;51820;48.374;10.930;2022-10-28T10:47:13;7.13;;;2.10;;
65234;SDS011;51820;48.374;10.930;2022-10-28T10:49:44;7.72;;;1.95;;
65234;SDS011;51820;48.374;10.930;2022-10-28T10:52:16;9.65;;;1.98;;
65234;SDS011;51820;48.374;10.930;2022-10-28T10:54:56;8.33;;;1.60;;
65234;SDS011;51820;48.374;10.930;2022-10-28T10:57:28;8.15;;;1.70;;
65234;SDS011;51820;48.374;10.930;2022-10-28T10:59:58;5.50;;;1.52;;
65234;SDS011;51820;48.374;10.930;2022-10-28T11:02:27;8.40;;;1.52;;
65234;SDS011;51820;48.374;10.930;2022-10-28T11:05:00;7.18;;;1.98;;
65234;SDS011;51820;48.374;10.930;2022-10-28T11:07:30;6.80;;;1.70;;
65234;SDS011;51820;48.374;10.930;2022-10-28T11:10:00;10.98;;;1.70;;
65234;SDS011;51820;48.374;10.930;2022-10-28T11:12:29;10.77;;;1.65;;
65234;SDS011;51820;48.374;10.930;2022-10-28T11:15:02;5.88;;;1.60;;
65234;SDS011;51820;48.374;10.930;2022-10-28T11:17:53;7.38;;;1.52;;
65234;SDS011;51820;48.374;10.930;2022-10-28T11:20:23;10.37;;;1.57;;
65234;SDS011;51820;48.374;10.930;2022-10-28T11:22:59;5.75;;;1.30;;
65234;SDS011;51820;48.374;10.930;2022-10-28T11:25:47;9.40;;;1.88;;
65234;SDS011;51820;48.374;10.930;2022-10-28T11:28:22;8.82;;;1.80;;
65234;SDS011;51820;48.374;10.930;2022-10-28T11:31:05;6.43;;;1.60;;
65234;SDS011;51820;48.374;10.930;2022-10-28T11:33:51;14.37;;;2.27;;
65234;SDS011;51820;48.374;10.930;2022-10-28T11:36:36;10.93;;;2.05;;
65234;SDS011;51820;48.374;10.930;2022-10-28T11:39:17;7.55;;;1.60;;
65234;SDS011;51820;48.374;10.930;2022-10-28T11:41:52;13.35;;;2.17;;
65234;SDS011;51820;48.374;10.930;2022-10-28T11:44:33;8.77;;;2.10;;
65234;SDS011;51820;48.374;10.930;2022-10-28T11:47:16;8.40;;;2.20;;
65234;SDS011;51820;48.374;10.930;2022-10-28T11:50:12;11.80;;;2.00;;
65234;SDS011;51820;48.374;10.930;2022-10-28T11:52:53;7.70;;;1.90;;
65234;SDS011;51820;48.374;10.930;2022-10-28T11:55:32;7.63;;;2.20;;
65234;SDS011;51820;48.374;10.930;2022-10-28T11:58:08;6.97;;;2.03;;
65234;SDS011;51820;48.374;10.930;2022-10-28T12:00:44;11.40;;;2.03;;
65234;SDS011;51820;48.374;10.930;2022-10-28T12:03:30;7.07;;;2.20;;
65234;SDS011;51820;48.374;10.930;2022-10-28T12:06:11;9.88;;;2.20;;
65234;SDS011;51820;48.374;10.930;2022-10-28T12:08:49;12.45;;;1.98;;
65234;SDS011;51820;48.374;10.930;2022-10-28T12:11:32;8.23;;;2.50;;
65234;SDS011;51820;48.374;10.930;2022-10-28T12:14:11;10.40;;;2.30;;
65234;SDS011;51820;48.374;10.930;2022-10-28T12:16:45;9.68;;;2.25;;
65234;SDS011;51820;48.374;10.930;2022-10-28T12:19:22;14.20;;;2.60;;
65234;SDS011;51820;48.374;10.930;2022-10-28T12:21:59;10.65;;;2.53;;
65234;SDS011;51820;48.374;10.930;2022-10-28T12:24:33;11.98;;;2.55;;
65234;SDS011;51820;48.374;10.930;2022-10-28T12:27:05;11.07;;;2.80;;
65234;SDS011;51820;48.374;10.930;2022-10-28T12:29:44;12.27;;;3.05;;
65234;SDS011;51820;48.374;10.930;2022-10-28T12:32:17;9.15;;;2.40;;
65234;SDS011;51820;48.374;10.930;2022-10-28T12:34:52;11.43;;;2.88;;
65234;SDS011;51820;48.374;10.930;2022-10-28T12:40:23;9.17;;;2.37;;
65234;SDS011;51820;48.374;10.930;2022-10-28T12:42:55;8.68;;;2.38;;
65234;SDS011;51820;48.374;10.930;2022-10-28T12:45:27;15.75;;;2.80;;
65234;SDS011;51820;48.374;10.930;2022-10-28T12:47:58;8.48;;;2.25;;
65234;SDS011;51820;48.374;10.930;2022-10-28T12:50:37;11.52;;;2.10;;
65234;SDS011;51820;48.374;10.930;2022-10-28T12:53:19;7.97;;;2.20;;
65234;SDS011;51820;48.374;10.930;2022-10-28T12:55:55;9.57;;;2.20;;
65234;SDS011;51820;48.374;10.930;2022-10-28T12:58:27;7.47;;;2.25;;
65234;SDS011;51820;48.374;10.930;2022-10-28T13:00:59;7.68;;;1.70;;
65234;SDS011;51820;48.374;10.930;2022-10-28T13:03:30;7.32;;;2.00;;
65234;SDS011;51820;48.374;10.930;2022-10-28T13:06:06;6.03;;;1.70;;
65234;SDS011;51820;48.374;10.930;2022-10-28T13:08:56;7.63;;;1.50;;
65234;SDS011;51820;48.374;10.930;2022-10-28T13:11:49;7.25;;;1.70;;
65234;SDS011;51820;48.374;10.930;2022-10-28T13:14:49;6.63;;;1.63;;
65234;SDS011;51820;48.374;10.930;2022-10-28T13:17:41;9.15;;;1.80;;
65234;SDS011;51820;48.374;10.930;2022-10-28T13:20:21;7.17;;;1.80;;
65234;SDS011;51820;48.374;10.930;2022-10-28T13:23:01;8.77;;;1.85;;
65234;SDS011;51820;48.374;10.930;2022-10-28T13:28:40;7.55;;;1.35;;
65234;SDS011;51820;48.374;10.930;2022-10-28T13:31:12;7.70;;;1.45;;
65234;SDS011;51820;48.374;10.930;2022-10-28T13:33:45;6.30;;;1.70;;
65234;SDS011;51820;48.374;10.930;2022-10-28T13:36:18;9.70;;;1.95;;
65234;SDS011;51820;48.374;10.930;2022-10-28T13:38:53;5.93;;;1.40;;
65234;SDS011;51820;48.374;10.930;2022-10-28T13:41:26;7.55;;;1.70;;
65234;SDS011;51820;48.374;10.930;2022-10-28T13:43:58;7.95;;;1.10;;
65234;SDS011;51820;48.374;10.930;2022-10-28T13:47:01;12.03;;;2.00;;
65234;SDS011;51820;48.374;10.930;2022-10-28T13:59:20;7.50;;;1.90;;
65234;SDS011;51820;48.374;10.930;2022-10-28T14:02:01;6.30;;;1.70;;
65234;SDS011;51820;48.374;10.930;2022-10-28T14:04:55;7.63;;;1.60;;
65234;SDS011;51820;48.374;10.930;2022-10-28T14:07:25;11.38;;;1.70;;
65234;SDS011;51820;48.374;10.930;2022-10-28T14:09:58;7.25;;;1.73;;
65234;SDS011;51820;48.374;10.930;2022-10-28T14:12:47;9.75;;;1.70;;
65234;SDS011;51820;48.374;10.930;2022-10-28T14:15:23;6.30;;;1.30;;
65234;SDS011;51820;48.374;10.930;2022-10-28T14:17:54;7.50;;;2.10;;
65234;SDS011;51820;48.374;10.930;2022-10-28T14:20:52;9.25;;;1.98;;
65234;SDS011;51820;48.374;10.930;2022-10-28T14:35:49;11.38;;;2.63;;
65234;SDS011;51820;48.374;10.930;2022-10-28T14:38:29;14.65;;;2.50;;
65234;SDS011;51820;48.374;10.930;2022-10-28T14:41:25;7.00;;;2.20;;
65234;SDS011;51820;48.374;10.930;2022-10-28T14:44:22;10.00;;;2.53;;
65234;SDS011;51820;48.374;10.930;2022-10-28T14:47:12;13.25;;;3.65;;
65234;SDS011;51820;48.374;10.930;2022-10-28T14:49:57;13.82;;;3.10;;
65234;SDS011;51820;48.374;10.930;2022-10-28T14:52:28;13.63;;;3.28;;
65234;SDS011;51820;48.374;10.930;2022-10-28T14:55:00;8.77;;;3.30;;
65234;SDS011;51820;48.374;10.930;2022-10-28T14:57:32;12.43;;;4.27;;
65234;SDS011;51820;48.374;10.930;2022-10-28T15:00:02;12.90;;;3.60;;
65234;SDS011;51820;48.374;10.930;2022-10-28T15:02:34;17.73;;;4.65;;
65234;SDS011;51820;48.374;10.930;2022-10-28T15:05:12;19.33;;;5.20;;
65234;SDS011;51820;48.374;10.930;2022-10-28T15:07:43;10.93;;;3.65;;
65234;SDS011;51820;48.374;10.930;2022-10-28T15:10:16;11.50;;;3.50;;
65234;SDS011;51820;48.374;10.930;2022-10-28T15:12:46;10.27;;;3.83;;
65234;SDS011;51820;48.374;10.930;2022-10-28T15:15:18;11.15;;;3.70;;
65234;SDS011;51820;48.374;10.930;2022-10-28T15:17:48;12.43;;;3.05;;
65234;SDS011;51820;48.374;10.930;2022-10-28T15:20:21;7.25;;;2.88;;
65234;SDS011;51820;48.374;10.930;2022-10-28T15:22:53;11.30;;;2.97;;
65234;SDS011;51820;48.374;10.930;2022-10-28T15:25:37;10.30;;;2.33;;
65234;SDS011;51820;48.374;10.930;2022-10-28T15:28:09;6.38;;;2.05;;
65234;SDS011;51820;48.374;10.930;2022-10-28T15:30:39;9.20;;;2.58;;
65234;SDS011;51820;48.374;10.930;2022-10-28T15:33:25;9.88;;;2.50;;
65234;SDS011;51820;48.374;10.930;2022-10-28T15:36:07;7.10;;;2.20;;
65234;SDS011;51820;48.374;10.930;2022-10-28T15:38:44;9.88;;;2.85;;
65234;SDS011;51820;48.374;10.930;2022-10-28T15:44:25;11.48;;;2.80;;